createdAt,value
2023-05-24T00:01:44.067Z,99998.48
2023-05-24T00:04:13.100Z,100001.70
2023-05-24T00:06:43.058Z,100005.77
2023-05-24T00:09:13.729Z,99998.64
2023-05-24T00:11:42.487Z,100004.89
2023-05-24T00:14:11.291Z,100008.66
2023-05-24T00:16:40.551Z,100008.68
2023-05-24T00:19:11.704Z,100011.56
2023-05-24T00:21:40.395Z,100014.11
2023-05-24T00:24:11.655Z,100013.77
2023-05-24T00:26:40.438Z,100011.35
2023-05-24T00:29:09.546Z,100020.02
2023-05-24T00:31:39.764Z,100016.92
2023-05-24T00:34:08.636Z,100019.13
2023-05-24T00:36:38.086Z,100024.35
2023-05-24T00:39:06.953Z,100024.38
2023-05-24T00:41:35.931Z,100016.57
2023-05-24T00:44:04.606Z,100022.61
2023-05-24T00:46:35.073Z,100022.16
2023-05-24T00:49:04.642Z,100023.77
2023-05-24T00:51:34.339Z,100026.91
2023-05-24T00:54:03.352Z,100030.73
2023-05-24T00:56:32.137Z,100035.71
2023-05-24T00:59:02.359Z,100039.45
2023-05-24T01:01:31.563Z,100046.90
2023-05-24T01:04:00.687Z,100055.77
2023-05-24T01:06:30.978Z,100062.20
2023-05-24T01:09:15.121Z,100061.57
2023-05-24T01:12:08.229Z,100063.67
2023-05-24T01:14:54.488Z,100071.31
2023-05-24T01:17:43.193Z,100072.47
2023-05-24T01:20:13.608Z,100076.18
2023-05-24T01:23:32.219Z,100080.54
2023-05-24T01:26:20.995Z,100081.40
2023-05-24T01:28:50.065Z,100075.76
2023-05-24T01:31:20.058Z,100074.61
2023-05-24T01:33:51.452Z,100080.41
2023-05-24T01:36:21.763Z,100080.43
2023-05-24T01:38:51.593Z,100082.06
2023-05-24T01:41:46.106Z,100082.84
2023-05-24T01:44:29.919Z,100085.21
2023-05-24T01:47:05.555Z,100088.02
2023-05-24T01:49:38.324Z,100096.02
2023-05-24T01:52:12.118Z,100096.54
2023-05-24T01:54:45.225Z,100105.79
2023-05-24T01:57:14.104Z,100102.75
2023-05-24T01:59:44.038Z,100107.83
2023-05-24T02:02:13.241Z,100123.73
2023-05-24T02:04:42.756Z,100122.13
2023-05-24T02:07:12.675Z,100132.34
2023-05-24T02:09:41.542Z,100129.15
2023-05-24T02:12:11.041Z,100132.56
2023-05-24T02:14:43.038Z,100133.93
2023-05-24T02:17:11.916Z,100140.96
2023-05-24T02:19:40.911Z,100144.64
2023-05-24T02:22:11.011Z,100149.52
2023-05-24T02:24:40.825Z,100144.42
2023-05-24T02:27:09.508Z,100146.79
2023-05-24T02:29:38.417Z,100148.28
2023-05-24T02:32:07.292Z,100147.06
2023-05-24T02:34:36.293Z,100154.02
2023-05-24T02:37:05.396Z,100155.41
2023-05-24T02:39:34.393Z,100151.13
2023-05-24T02:42:05.205Z,100153.94
2023-05-24T02:44:33.788Z,100152.02
2023-05-24T02:47:02.790Z,100155.54
2023-05-24T02:49:31.565Z,100158.67
2023-05-24T02:52:00.527Z,100160.56
2023-05-24T02:54:29.171Z,100158.98
2023-05-24T02:56:59.530Z,100162.96
2023-05-24T02:59:28.665Z,100161.58
2023-05-24T03:01:57.570Z,100162.86
2023-05-24T03:04:27.168Z,100165.54
2023-05-24T03:06:56.773Z,100169.61
2023-05-24T03:09:25.792Z,100166.09
2023-05-24T03:11:54.961Z,100167.10
2023-05-24T03:14:25.401Z,100169.35
2023-05-24T03:16:54.183Z,100173.10
2023-05-24T03:19:23.068Z,100175.88
2023-05-24T03:21:53.097Z,100179.65
2023-05-24T03:24:21.876Z,100184.30
2023-05-24T03:26:51.102Z,100186.14
2023-05-24T03:29:19.862Z,100193.89
2023-05-24T03:31:49.406Z,100192.08
2023-05-24T03:34:18.460Z,100191.75
2023-05-24T03:36:47.277Z,100188.11
2023-05-24T03:39:16.355Z,100189.98
2023-05-24T03:42:02.781Z,100189.94
2023-05-24T03:44:33.192Z,100193.36
2023-05-24T03:47:02.185Z,100191.21
2023-05-24T03:49:32.593Z,100195.87
2023-05-24T03:52:02.028Z,100193.98
2023-05-24T03:54:31.598Z,100188.68
2023-05-24T03:57:00.390Z,100190.45
2023-05-24T03:59:31.178Z,100190.98
2023-05-24T04:02:00.106Z,100188.08
2023-05-24T04:04:30.027Z,100191.65
2023-05-24T04:06:59.448Z,100189.83
2023-05-24T04:09:28.216Z,100188.81
2023-05-24T04:11:57.865Z,100187.16
2023-05-24T04:14:27.127Z,100189.94
2023-05-24T04:16:56.025Z,100195.46
2023-05-24T04:19:24.931Z,100204.71
2023-05-24T04:21:53.708Z,100208.30
2023-05-24T04:24:22.586Z,100210.02
2023-05-24T04:26:52.305Z,100214.50
2023-05-24T04:29:21.418Z,100218.17
2023-05-24T04:31:50.642Z,100218.35
2023-05-24T04:34:22.752Z,100223.44
2023-05-24T04:36:53.615Z,100225.52
2023-05-24T04:39:22.685Z,100227.15
2023-05-24T04:41:53.349Z,100226.71
2023-05-24T04:44:22.014Z,100232.54
2023-05-24T04:46:51.472Z,100234.18
2023-05-24T04:49:20.699Z,100238.83
2023-05-24T04:51:49.596Z,100239.78
2023-05-24T04:54:18.895Z,100242.96
2023-05-24T04:56:48.219Z,100242.16
2023-05-24T04:59:17.085Z,100248.41
2023-05-24T05:01:46.045Z,100254.34
2023-05-24T05:04:15.028Z,100252.67
2023-05-24T05:06:45.090Z,100258.62
2023-05-24T05:09:15.140Z,100260.38
2023-05-24T05:11:44.215Z,100267.38
2023-05-24T05:14:15.015Z,100276.45
2023-05-24T05:16:44.167Z,100279.98
2023-05-24T05:19:13.156Z,100283.51
2023-05-24T05:21:42.435Z,100284.66
2023-05-24T05:24:11.227Z,100294.04
2023-05-24T05:26:40.426Z,100290.88
2023-05-24T05:29:09.714Z,100299.87
2023-05-24T05:31:40.057Z,100305.14
2023-05-24T05:34:10.441Z,100305.34
2023-05-24T05:36:41.523Z,100304.80
2023-05-24T05:39:10.702Z,100300.38
2023-05-24T05:41:40.426Z,100295.58
2023-05-24T05:44:09.649Z,100294.16
2023-05-24T05:46:39.688Z,100299.29
2023-05-24T05:49:10.057Z,100298.92
2023-05-24T05:51:40.392Z,100300.80
2023-05-24T05:54:15.069Z,100300.61
2023-05-24T05:56:48.420Z,100306.80
2023-05-24T05:59:17.920Z,100308.98
2023-05-24T06:01:48.406Z,100311.58
2023-05-24T06:04:19.656Z,100315.39
2023-05-24T06:06:52.980Z,100316.77
2023-05-24T06:09:22.168Z,100323.24
2023-05-24T06:11:52.113Z,100322.60
2023-05-24T06:14:22.783Z,100326.55
2023-05-24T06:16:55.147Z,100327.21
2023-05-24T06:19:25.840Z,100328.66
2023-05-24T06:21:55.138Z,100330.23
2023-05-24T06:24:25.956Z,100325.84
2023-05-24T06:26:55.563Z,100325.58
2023-05-24T06:29:25.943Z,100324.58
2023-05-24T06:31:55.864Z,100335.89
2023-05-24T06:34:25.203Z,100333.42
2023-05-24T06:36:54.302Z,100339.41
2023-05-24T06:39:25.853Z,100346.70
2023-05-24T06:41:55.468Z,100354.13
2023-05-24T06:44:34.097Z,100358.09
2023-05-24T06:47:03.250Z,100363.48
2023-05-24T06:49:34.620Z,100370.67
2023-05-24T06:52:05.352Z,100375.61
2023-05-24T06:54:35.191Z,100375.66
2023-05-24T06:57:05.201Z,100376.12
2023-05-24T06:59:34.905Z,100384.81
2023-05-24T07:02:05.327Z,100390.90
2023-05-24T07:04:34.753Z,100400.38
2023-05-24T07:07:04.578Z,100401.75
2023-05-24T07:09:33.950Z,100401.66
2023-05-24T07:12:03.157Z,100398.98
2023-05-24T07:14:33.351Z,100401.38
2023-05-24T07:17:03.446Z,100408.95
2023-05-24T07:19:34.566Z,100409.98
2023-05-24T07:22:03.646Z,100412.58
2023-05-24T07:24:35.781Z,100414.45
2023-05-24T07:27:08.634Z,100411.96
2023-05-24T07:29:39.360Z,100411.83
2023-05-24T07:32:14.461Z,100421.29
2023-05-24T07:34:46.398Z,100429.89
2023-05-24T07:37:17.356Z,100434.55
2023-05-24T07:39:48.280Z,100443.55
2023-05-24T07:42:18.309Z,100446.67
2023-05-24T07:44:47.429Z,100448.40
2023-05-24T07:47:16.696Z,100451.49
2023-05-24T07:49:46.935Z,100452.80
2023-05-24T07:52:16.028Z,100456.45
2023-05-24T07:54:45.432Z,100455.66
2023-05-24T07:57:15.525Z,100452.14
2023-05-24T07:59:44.618Z,100460.95
2023-05-24T08:02:14.149Z,100454.41
2023-05-24T08:04:50.084Z,100455.25
2023-05-24T08:07:20.675Z,100457.27
2023-05-24T08:09:50.029Z,100454.73
2023-05-24T08:12:18.917Z,100452.67
2023-05-24T08:14:48.733Z,100451.91
2023-05-24T08:17:17.731Z,100454.23
2023-05-24T08:19:46.712Z,100460.67
2023-05-24T08:22:16.516Z,100453.94
2023-05-24T08:24:45.953Z,100456.00
2023-05-24T08:27:15.330Z,100461.23
2023-05-24T08:29:44.436Z,100454.73
2023-05-24T08:32:14.042Z,100454.02
2023-05-24T08:34:43.526Z,100462.52
2023-05-24T08:37:15.545Z,100457.84
2023-05-24T08:39:45.258Z,100464.02
2023-05-24T08:42:15.227Z,100455.55
2023-05-24T08:45:10.198Z,100456.56
2023-05-24T08:47:40.212Z,100463.61
2023-05-24T08:50:10.244Z,100467.34
2023-05-24T08:52:40.266Z,100462.92
2023-05-24T08:55:10.922Z,100466.52
2023-05-24T08:57:41.816Z,100468.11
2023-05-24T09:00:13.472Z,100472.39
2023-05-24T09:02:44.258Z,100474.35
2023-05-24T09:05:17.942Z,100470.42
2023-05-24T09:07:47.302Z,100474.73
2023-05-24T09:10:16.955Z,100474.60
2023-05-24T09:12:51.763Z,100478.84
2023-05-24T09:15:20.871Z,100480.92
2023-05-24T09:17:49.997Z,100486.55
2023-05-24T09:20:19.796Z,100486.56
2023-05-24T09:22:52.531Z,100481.29
2023-05-24T09:25:22.500Z,100477.98
2023-05-24T09:27:53.129Z,100481.20
2023-05-24T09:30:22.929Z,100485.96
2023-05-24T09:32:58.455Z,100482.65
2023-05-24T09:35:29.244Z,100491.02
2023-05-24T09:38:00.654Z,100484.52
2023-05-24T09:40:30.459Z,100485.52
2023-05-24T09:43:10.177Z,100485.25
2023-05-24T09:45:47.190Z,100489.17
2023-05-24T09:48:20.882Z,100491.17
2023-05-24T09:51:19.862Z,100490.25
2023-05-24T09:53:49.928Z,100495.09
2023-05-24T09:56:19.833Z,100499.91
2023-05-24T09:58:48.709Z,100498.46
2023-05-24T10:01:19.274Z,100501.03
2023-05-24T10:03:58.588Z,100498.67
2023-05-24T10:06:30.338Z,100500.80
2023-05-24T10:09:00.752Z,100504.48
2023-05-24T10:11:34.066Z,100509.60
2023-05-24T10:14:06.119Z,100518.95
2023-05-24T10:16:35.272Z,100517.75
2023-05-24T10:19:05.447Z,100515.20
2023-05-24T10:21:38.027Z,100510.45
2023-05-24T10:24:10.389Z,100513.89
2023-05-24T10:26:40.094Z,100514.30
2023-05-24T10:29:12.103Z,100517.53
2023-05-24T10:31:43.101Z,100510.26
2023-05-24T10:34:12.550Z,100509.65
2023-05-24T10:36:41.484Z,100505.27
2023-05-24T10:39:12.540Z,100502.48
2023-05-24T10:41:45.202Z,100503.51
2023-05-24T10:44:15.552Z,100508.25
2023-05-24T10:47:07.573Z,100513.26
2023-05-24T10:49:37.928Z,100518.60
2023-05-24T10:52:11.092Z,100515.26
2023-05-24T10:54:49.664Z,100520.83
2023-05-24T10:57:28.331Z,100520.82
2023-05-24T10:59:58.013Z,100519.30
2023-05-24T11:02:36.239Z,100519.98
2023-05-24T11:05:06.690Z,100523.30
2023-05-24T11:07:43.396Z,100518.45
2023-05-24T11:10:20.420Z,100519.09
2023-05-24T11:12:59.046Z,100523.83
2023-05-24T11:15:29.101Z,100521.77
2023-05-24T11:18:16.814Z,100525.34
2023-05-24T11:20:47.762Z,100527.17
2023-05-24T11:23:18.356Z,100533.52
2023-05-24T11:25:51.036Z,100538.65
2023-05-24T11:28:20.627Z,100540.52
2023-05-24T11:30:49.647Z,100541.94
2023-05-24T11:33:20.586Z,100536.71
2023-05-24T11:35:55.104Z,100534.55
2023-05-24T11:38:25.013Z,100537.45
2023-05-24T11:40:54.864Z,100534.39
2023-05-24T11:43:24.013Z,100530.58
2023-05-24T11:45:53.760Z,100537.59
2023-05-24T11:48:24.685Z,100537.65
2023-05-24T11:50:54.227Z,100532.43
2023-05-24T11:53:23.887Z,100536.83
2023-05-24T11:55:55.023Z,100535.98
2023-05-24T11:58:25.341Z,100532.08
2023-05-24T12:00:54.560Z,100533.53
2023-05-24T12:03:24.144Z,100538.25
2023-05-24T12:05:57.855Z,100540.30
2023-05-24T12:08:26.931Z,100535.41
2023-05-24T12:10:55.931Z,100533.80
2023-05-24T12:13:26.442Z,100533.01
2023-05-24T12:15:57.102Z,100536.07
2023-05-24T12:18:27.278Z,100536.02
2023-05-24T12:20:56.534Z,100535.05
2023-05-24T12:23:30.157Z,100535.54
2023-05-24T12:26:03.534Z,100531.35
2023-05-24T12:28:39.640Z,100526.92
2023-05-24T12:31:10.044Z,100527.48
2023-05-24T12:33:40.312Z,100525.05
2023-05-24T12:36:10.981Z,100529.27
2023-05-24T12:38:40.576Z,100525.58
2023-05-24T12:41:13.736Z,100527.06
2023-05-24T12:43:45.008Z,100523.36
2023-05-24T12:46:14.936Z,100523.59
2023-05-24T12:48:44.589Z,100527.36
2023-05-24T12:51:14.041Z,100527.91
2023-05-24T12:53:43.846Z,100525.86
2023-05-24T12:56:12.862Z,100522.61
2023-05-24T12:58:44.016Z,100522.46
2023-05-24T13:01:13.195Z,100529.21
2023-05-24T13:03:42.656Z,100526.19
2023-05-24T13:06:11.575Z,100527.08
2023-05-24T13:08:41.266Z,100530.17
2023-05-24T13:11:10.496Z,100527.58
2023-05-24T13:13:40.165Z,100525.15
2023-05-24T13:16:11.056Z,100523.08
2023-05-24T13:18:40.870Z,100523.80
2023-05-24T13:21:12.116Z,100525.14
2023-05-24T13:23:43.956Z,100526.63
2023-05-24T13:26:13.557Z,100521.20
2023-05-24T13:28:58.652Z,100521.31
2023-05-24T13:31:32.286Z,100527.34
2023-05-24T13:34:01.849Z,100525.59
2023-05-24T13:36:30.966Z,100524.67
2023-05-24T13:41:33.699Z,100524.77
2023-05-24T13:44:03.580Z,100524.80
2023-05-24T13:46:32.673Z,100523.17
2023-05-24T13:49:03.016Z,100522.29
2023-05-24T13:51:32.798Z,100523.54
2023-05-24T13:54:02.494Z,100521.11
2023-05-24T13:56:33.412Z,100521.80
2023-05-24T13:59:04.055Z,100519.31
2023-05-24T14:01:34.206Z,100515.55
2023-05-24T14:04:04.577Z,100511.20
2023-05-24T14:06:34.313Z,100513.12
2023-05-24T14:09:03.630Z,100512.26
2023-05-24T14:11:32.958Z,100516.97
2023-05-24T14:16:35.378Z,100512.11
2023-05-24T14:19:05.247Z,100512.11
2023-05-24T14:21:37.286Z,100515.11
2023-05-24T14:24:06.271Z,100511.52
2023-05-24T14:26:35.469Z,100509.25
2023-05-24T14:29:07.641Z,100508.11
2023-05-24T14:31:42.676Z,100505.10
2023-05-24T14:34:12.588Z,100503.23
2023-05-24T14:36:43.567Z,100501.65
2023-05-24T14:39:13.245Z,100501.03
2023-05-24T14:41:42.916Z,100506.42
2023-05-24T14:44:11.849Z,100498.37
2023-05-24T14:46:41.782Z,100500.42
2023-05-24T14:49:11.056Z,100506.67
2023-05-24T14:51:40.244Z,100508.30
2023-05-24T14:54:11.903Z,100513.13
2023-05-24T14:56:41.702Z,100513.02
2023-05-24T14:59:10.399Z,100512.48
2023-05-24T15:01:39.708Z,100515.60
2023-05-24T15:04:08.792Z,100514.36
2023-05-24T15:06:38.129Z,100507.78
2023-05-24T15:09:07.393Z,100511.20
2023-05-24T15:11:37.407Z,100504.83
2023-05-24T15:14:06.826Z,100506.09
2023-05-24T15:16:37.640Z,100503.98
2023-05-24T15:19:06.945Z,100511.64
2023-05-24T15:21:37.455Z,100509.70
2023-05-24T15:24:07.191Z,100509.53
2023-05-24T15:26:35.882Z,100506.02
2023-05-24T15:29:05.295Z,100515.05
2023-05-24T15:34:28.884Z,100509.08
2023-05-24T15:36:58.267Z,100506.14
2023-05-24T15:39:27.579Z,100500.88
2023-05-24T15:41:57.480Z,100494.62
2023-05-24T15:44:26.505Z,100494.58
2023-05-24T15:46:55.672Z,100499.05
2023-05-24T15:49:25.291Z,100500.70
2023-05-24T15:54:26.603Z,100492.57
2023-05-24T15:56:55.228Z,100493.55
2023-05-24T15:59:24.117Z,100497.41
2023-05-24T16:01:53.470Z,100500.23
2023-05-24T16:04:22.330Z,100502.53
2023-05-24T16:06:51.732Z,100499.21
2023-05-24T16:09:21.937Z,100502.55
2023-05-24T16:11:55.316Z,100499.68
2023-05-24T16:14:24.846Z,100498.73
2023-05-24T16:17:17.460Z,100501.67
2023-05-24T16:19:50.031Z,100500.62
2023-05-24T16:22:19.281Z,100505.27
2023-05-24T16:24:51.531Z,100506.06
2023-05-24T16:27:20.747Z,100507.01
2023-05-24T16:29:49.932Z,100507.90
2023-05-24T16:32:18.944Z,100505.58
2023-05-24T16:34:56.874Z,100503.26
2023-05-24T16:37:26.938Z,100512.50
2023-05-24T16:39:55.948Z,100519.08
2023-05-24T16:42:25.246Z,100520.95
2023-05-24T16:44:54.127Z,100518.14
2023-05-24T16:47:23.286Z,100520.38
2023-05-24T16:49:53.195Z,100522.23
2023-05-24T16:52:21.709Z,100529.12
2023-05-24T16:54:50.955Z,100531.33
2023-05-24T16:57:20.420Z,100533.17
2023-05-24T16:59:50.820Z,100533.27
2023-05-24T17:02:19.636Z,100538.45
2023-05-24T17:04:50.993Z,100540.70
2023-05-24T17:07:20.280Z,100542.57
2023-05-24T17:09:51.599Z,100544.27
2023-05-24T17:12:22.705Z,100546.52
2023-05-24T17:14:52.200Z,100549.81
2023-05-24T17:17:23.108Z,100556.06
2023-05-24T17:19:53.647Z,100555.23
2023-05-24T17:22:23.090Z,100553.74
2023-05-24T17:24:52.053Z,100551.61
2023-05-24T17:27:22.521Z,100548.20
2023-05-24T17:29:52.784Z,100553.75
2023-05-24T17:32:21.982Z,100559.68
2023-05-24T17:34:51.314Z,100566.79
2023-05-24T17:37:21.940Z,100576.14
2023-05-24T17:39:53.318Z,100575.70
2023-05-24T17:42:23.000Z,100581.02
2023-05-24T17:44:52.554Z,100582.02
2023-05-24T17:47:22.677Z,100583.80
2023-05-24T17:49:53.585Z,100581.30
2023-05-24T17:52:22.455Z,100585.33
2023-05-24T17:54:51.744Z,100586.77
2023-05-24T17:57:22.295Z,100589.75
2023-05-24T17:59:51.718Z,100588.98
2023-05-24T18:02:20.452Z,100589.91
2023-05-24T18:04:53.339Z,100595.11
2023-05-24T18:07:22.018Z,100598.11
2023-05-24T18:09:52.139Z,100599.86
2023-05-24T18:12:21.245Z,100604.04
2023-05-24T18:14:51.169Z,100603.91
2023-05-24T18:17:20.151Z,100605.23
2023-05-24T18:19:48.860Z,100611.38
2023-05-24T18:22:17.944Z,100614.75
2023-05-24T18:24:47.024Z,100616.36
2023-05-24T18:27:15.706Z,100617.40
2023-05-24T18:29:45.615Z,100621.33
2023-05-24T18:32:14.446Z,100623.08
2023-05-24T18:34:43.327Z,100624.13
2023-05-24T18:37:12.408Z,100626.27
2023-05-24T18:39:41.683Z,100630.65
2023-05-24T18:42:13.064Z,100633.64
2023-05-24T18:44:41.728Z,100638.45
2023-05-24T18:47:11.430Z,100637.46
2023-05-24T18:49:40.232Z,100650.35
2023-05-24T18:52:09.442Z,100651.55
2023-05-24T18:54:38.533Z,100656.20
2023-05-24T18:57:08.970Z,100659.80
2023-05-24T18:59:37.841Z,100663.65
2023-05-24T19:02:07.293Z,100662.67
2023-05-24T19:04:36.242Z,100661.64
2023-05-24T19:07:05.917Z,100659.92
2023-05-24T19:09:35.131Z,100659.06
2023-05-24T19:12:05.050Z,100654.61
2023-05-24T19:14:35.178Z,100657.83
2023-05-24T19:17:04.548Z,100665.20
2023-05-24T19:19:33.773Z,100666.64
2023-05-24T19:22:02.670Z,100671.75
2023-05-24T19:24:31.809Z,100672.85
2023-05-24T19:27:02.386Z,100667.98
2023-05-24T19:29:31.411Z,100665.25
2023-05-24T19:32:00.392Z,100667.52
2023-05-24T19:34:31.953Z,100665.38
2023-05-24T19:37:01.248Z,100666.16
2023-05-24T19:39:30.433Z,100666.90
2023-05-24T19:41:59.314Z,100666.35
2023-05-24T19:44:28.247Z,100666.80
2023-05-24T19:46:57.424Z,100668.56
2023-05-24T19:49:26.307Z,100671.19
2023-05-24T19:51:55.491Z,100667.65
2023-05-24T19:54:24.598Z,100669.95
2023-05-24T19:56:55.521Z,100672.69
2023-05-24T19:59:24.312Z,100674.23
2023-05-24T20:01:53.577Z,100678.30
2023-05-24T20:04:22.604Z,100678.20
2023-05-24T20:06:53.773Z,100681.31
2023-05-24T20:09:22.657Z,100678.83
2023-05-24T20:11:52.047Z,100680.16
2023-05-24T20:14:21.954Z,100686.64
2023-05-24T20:16:50.879Z,100683.19
2023-05-24T20:19:21.987Z,100685.21
2023-05-24T20:21:50.796Z,100682.36
2023-05-24T20:24:19.472Z,100683.08
2023-05-24T20:26:48.795Z,100686.09
2023-05-24T20:29:17.670Z,100693.40
2023-05-24T20:31:47.630Z,100697.95
2023-05-24T20:34:16.459Z,100698.26
2023-05-24T20:36:45.380Z,100697.33
2023-05-24T20:39:14.270Z,100699.88
2023-05-24T20:41:43.159Z,100704.77
2023-05-24T20:44:12.129Z,100706.73
2023-05-24T20:46:41.651Z,100707.67
2023-05-24T20:49:10.228Z,100712.42
2023-05-24T20:51:38.988Z,100708.73
2023-05-24T20:54:08.010Z,100715.45
2023-05-24T20:56:37.011Z,100710.66
2023-05-24T20:59:06.089Z,100714.44
2023-05-24T21:01:34.818Z,100712.94
2023-05-24T21:04:04.380Z,100714.39
2023-05-24T21:06:34.251Z,100717.12
2023-05-24T21:09:04.035Z,100719.92
2023-05-24T21:11:33.500Z,100723.77
2023-05-24T21:14:02.421Z,100730.64
2023-05-24T21:16:33.438Z,100730.57
2023-05-24T21:19:02.549Z,100737.04
2023-05-24T21:21:31.218Z,100740.07
2023-05-24T21:24:00.228Z,100748.20
2023-05-24T21:26:29.212Z,100757.20
2023-05-24T21:28:58.139Z,100758.38
2023-05-24T21:31:29.720Z,100761.91
2023-05-24T21:33:58.963Z,100765.55
2023-05-24T21:36:27.737Z,100761.98
2023-05-24T21:38:57.468Z,100761.30
2023-05-24T21:41:27.289Z,100758.73
2023-05-24T21:43:56.066Z,100755.63
2023-05-24T21:46:25.004Z,100753.64
2023-05-24T21:48:53.845Z,100759.32
2023-05-24T21:51:22.921Z,100757.21
2023-05-24T21:53:52.867Z,100761.67
2023-05-24T21:56:21.928Z,100766.71
2023-05-24T21:58:50.814Z,100770.98
2023-05-24T22:01:19.707Z,100770.71
2023-05-24T22:03:48.835Z,100768.23
2023-05-24T22:06:17.708Z,100772.45
2023-05-24T22:08:46.577Z,100772.86
2023-05-24T22:11:15.295Z,100772.04
2023-05-24T22:13:44.291Z,100767.69
2023-05-24T22:16:13.057Z,100773.35
2023-05-24T22:18:41.846Z,100770.61
2023-05-24T22:21:10.547Z,100771.66
2023-05-24T22:23:39.624Z,100768.34
2023-05-24T22:26:08.423Z,100770.19
2023-05-24T22:28:53.817Z,100767.50
2023-05-24T22:31:24.310Z,100766.90
2023-05-24T22:33:53.009Z,100769.50
2023-05-24T22:36:21.988Z,100767.80
2023-05-24T22:38:50.910Z,100765.30
2023-05-24T22:41:19.990Z,100771.73
2023-05-24T22:43:48.773Z,100770.62
2023-05-24T22:46:17.562Z,100770.76
2023-05-24T22:48:46.446Z,100772.60
2023-05-24T22:51:15.393Z,100769.27
2023-05-24T22:53:44.353Z,100770.64
2023-05-24T22:56:13.324Z,100769.66
2023-05-24T22:58:42.229Z,100765.68
2023-05-24T23:01:12.104Z,100767.64
2023-05-24T23:03:41.247Z,100769.71
2023-05-24T23:06:12.488Z,100764.89
2023-05-24T23:08:41.266Z,100766.89
2023-05-24T23:11:11.391Z,100764.64
2023-05-24T23:13:42.852Z,100766.48
2023-05-24T23:16:18.388Z,100765.13
2023-05-24T23:18:47.290Z,100764.14
2023-05-24T23:21:17.072Z,100767.55
2023-05-24T23:23:46.807Z,100770.48
2023-05-24T23:26:15.966Z,100769.66
2023-05-24T23:28:45.997Z,100773.95
2023-05-24T23:31:15.242Z,100777.00
2023-05-24T23:33:44.003Z,100776.19
2023-05-24T23:36:12.786Z,100775.79
2023-05-24T23:38:41.457Z,100782.20
2023-05-24T23:41:10.355Z,100788.60
2023-05-24T23:43:38.936Z,100791.98
2023-05-24T23:46:08.648Z,100790.84
2023-05-24T23:48:37.130Z,100784.98
2023-05-24T23:51:07.820Z,100785.30
2023-05-24T23:53:36.857Z,100783.27
2023-05-24T23:56:05.535Z,100781.80
2023-05-24T23:58:34.524Z,100783.20
